createdAt,value
2023-05-05T00:00:14.073Z,100364.56
2023-05-05T00:02:43.391Z,100338.53
2023-05-05T00:05:10.448Z,100353.06
2023-05-05T00:07:37.333Z,100357.44
2023-05-05T00:10:05.814Z,100328.94
2023-05-05T00:12:33.616Z,100357.72
2023-05-05T00:15:02.638Z,100363.28
2023-05-05T00:17:30.850Z,100343.19
2023-05-05T00:19:57.434Z,100362.97
2023-05-05T00:22:24.075Z,100352.50
2023-05-05T00:24:55.568Z,100346.53
2023-05-05T00:27:23.320Z,100358.31
2023-05-05T00:29:50.836Z,100355.47
2023-05-05T00:32:19.546Z,100362.69
2023-05-05T00:34:46.593Z,100340.25
2023-05-05T00:37:16.837Z,100343.09
2023-05-05T00:39:44.205Z,100352.22
2023-05-05T00:42:11.575Z,100357.72
2023-05-05T00:44:40.663Z,100345.56
2023-05-05T00:47:16.786Z,100320.63
2023-05-05T00:49:43.666Z,100350.13
2023-05-05T00:52:11.703Z,100350.13
2023-05-05T00:54:44.341Z,100346.34
2023-05-05T00:57:11.562Z,100337.97
2023-05-05T00:59:39.149Z,100335.47
2023-05-05T01:02:06.321Z,100331.69
2023-05-05T01:04:34.254Z,100346.34
2023-05-05T01:07:52.621Z,100345.94
2023-05-05T01:10:43.029Z,100306.28
2023-05-05T01:13:32.849Z,100342.72
2023-05-05T01:16:12.064Z,100339.00
2023-05-05T01:18:52.806Z,100331.22
2023-05-05T01:21:47.693Z,100333.13
2023-05-05T01:24:33.111Z,100325.13
2023-05-05T01:27:27.304Z,100331.41
2023-05-05T01:30:32.472Z,100323.25
2023-05-05T01:33:05.568Z,100320.75
2023-05-05T01:35:45.879Z,100309.72
2023-05-05T01:38:19.197Z,100323.50
2023-05-05T01:40:52.132Z,100295.28
2023-05-05T01:43:21.720Z,100290.13
2023-05-05T01:45:50.664Z,100310.03
2023-05-05T01:48:19.507Z,100303.00
2023-05-05T01:50:48.171Z,100274.94
2023-05-05T01:53:18.233Z,100304.31
2023-05-05T01:55:47.179Z,100283.41
2023-05-05T01:58:16.529Z,100295.38
2023-05-05T02:00:44.250Z,100249.09
2023-05-05T02:03:16.274Z,100305.75
2023-05-05T02:05:44.745Z,100304.78
2023-05-05T02:08:12.226Z,100293.28
2023-05-05T02:10:45.730Z,100307.91
2023-05-05T02:13:15.603Z,100313.53
2023-05-05T02:15:46.405Z,100314.19
2023-05-05T02:20:55.347Z,100326.38
2023-05-05T02:23:22.212Z,100329.47
2023-05-05T02:25:57.994Z,100333.56
2023-05-05T02:28:41.906Z,100318.88
2023-05-05T02:31:11.125Z,100314.69
2023-05-05T02:33:39.342Z,100333.78
2023-05-05T02:36:26.280Z,100345.91
2023-05-05T02:38:58.332Z,100340.53
2023-05-05T02:41:30.804Z,100324.84
2023-05-05T02:44:00.940Z,100341.66
2023-05-05T02:46:33.025Z,100320.66
2023-05-05T02:49:04.447Z,100316.13
2023-05-05T02:51:33.721Z,100352.13
2023-05-05T02:54:01.805Z,100330.00
2023-05-05T02:56:42.346Z,100350.56
2023-05-05T02:59:26.682Z,100345.09
2023-05-05T03:02:20.066Z,100354.50
2023-05-05T03:05:21.757Z,100328.53
2023-05-05T03:08:09.809Z,100329.31
2023-05-05T03:10:44.244Z,100350.47
2023-05-05T03:13:14.421Z,100358.63
2023-05-05T03:15:46.802Z,100336.59
2023-05-05T03:18:18.101Z,100346.66
2023-05-05T03:20:46.485Z,100364.25
2023-05-05T03:23:20.409Z,100355.88
2023-05-05T03:25:48.848Z,100363.69
2023-05-05T03:28:18.423Z,100347.28
2023-05-05T03:30:48.980Z,100353.44
2023-05-05T03:33:19.828Z,100332.72
2023-05-05T03:35:50.279Z,100351.72
2023-05-05T03:38:17.064Z,100343.47
2023-05-05T03:40:44.846Z,100344.66
2023-05-05T03:43:11.829Z,100338.97
2023-05-05T03:45:46.115Z,100331.28
2023-05-05T03:48:13.650Z,100353.19
2023-05-05T03:50:40.669Z,100363.38
2023-05-05T03:53:07.095Z,100345.06
2023-05-05T03:55:37.969Z,100351.72
2023-05-05T03:58:04.455Z,100352.75
2023-05-05T04:00:31.413Z,100366.81
2023-05-05T04:02:58.085Z,100356.41
2023-05-05T04:05:25.733Z,100352.34
2023-05-05T04:07:52.874Z,100355.94
2023-05-05T04:10:20.644Z,100331.28
2023-05-05T04:12:47.632Z,100352.41
2023-05-05T04:15:14.378Z,100355.84
2023-05-05T04:17:41.126Z,100359.53
2023-05-05T04:20:12.514Z,100318.53
2023-05-05T04:22:40.890Z,100346.28
2023-05-05T04:25:07.795Z,100355.25
2023-05-05T04:27:40.286Z,100357.94
2023-05-05T04:30:10.257Z,100357.84
2023-05-05T04:32:41.992Z,100333.94
2023-05-05T04:35:11.971Z,100365.31
2023-05-05T04:37:40.226Z,100362.13
2023-05-05T04:40:09.845Z,100364.78
2023-05-05T04:42:39.560Z,100329.66
2023-05-05T04:45:09.923Z,100374.03
2023-05-05T04:47:37.131Z,100376.19
2023-05-05T04:50:03.997Z,100375.09
2023-05-05T04:52:38.286Z,100373.19
2023-05-05T04:55:12.594Z,100387.84
2023-05-05T04:57:41.981Z,100381.75
2023-05-05T05:00:12.278Z,100374.53
2023-05-05T05:02:39.486Z,100388.94
2023-05-05T05:05:08.066Z,100394.94
2023-05-05T05:07:42.495Z,100352.88
2023-05-05T05:10:20.593Z,100393.69
2023-05-05T05:12:57.785Z,100389.13
2023-05-05T05:15:30.338Z,100363.50
2023-05-05T05:17:57.657Z,100396.75
2023-05-05T05:20:25.816Z,100384.97
2023-05-05T05:22:52.702Z,100362.75
2023-05-05T05:25:21.174Z,100400.00
2023-05-05T05:30:39.010Z,100406.78
2023-05-05T05:33:07.735Z,100387.41
2023-05-05T05:35:35.167Z,100375.13
2023-05-05T05:38:05.076Z,100406.34
2023-05-05T05:40:49.880Z,100381.72
2023-05-05T05:43:18.597Z,100412.53
2023-05-05T05:45:48.307Z,100403.97
2023-05-05T05:51:17.285Z,100394.44
2023-05-05T05:53:49.913Z,100423.00
2023-05-05T05:59:01.916Z,100428.44
2023-05-05T06:01:33.846Z,100434.50
2023-05-05T06:04:02.479Z,100430.53
2023-05-05T06:06:29.441Z,100432.81
2023-05-05T06:09:05.158Z,100442.03
2023-05-05T06:11:33.272Z,100433.66
2023-05-05T06:14:00.547Z,100417.03
2023-05-05T06:16:27.556Z,100440.44
2023-05-05T06:18:57.579Z,100443.91
2023-05-05T06:21:37.961Z,100414.63
2023-05-05T06:24:07.193Z,100456.19
2023-05-05T06:26:34.184Z,100455.03
2023-05-05T06:29:01.579Z,100439.22
2023-05-05T06:31:28.745Z,100455.72
2023-05-05T06:33:58.453Z,100453.66
2023-05-05T06:36:29.824Z,100448.41
2023-05-05T06:38:59.219Z,100428.03
2023-05-05T06:41:28.084Z,100422.44
2023-05-05T06:43:56.301Z,100410.31
2023-05-05T06:46:23.542Z,100408.75
2023-05-05T06:48:52.079Z,100417.78
2023-05-05T06:51:26.598Z,100423.88
2023-05-05T06:53:55.499Z,100429.13
2023-05-05T06:56:28.776Z,100408.06
2023-05-05T06:59:16.646Z,100396.41
2023-05-05T07:04:42.612Z,100394.03
2023-05-05T07:07:10.317Z,100429.75
2023-05-05T07:09:48.308Z,100406.84
2023-05-05T07:12:18.832Z,100459.84
2023-05-05T07:14:52.806Z,100375.22
2023-05-05T07:17:24.146Z,100402.06
2023-05-05T07:25:33.599Z,100425.63
2023-05-05T07:28:30.358Z,100403.91
2023-05-05T07:31:02.518Z,100440.59
2023-05-05T07:33:31.191Z,100436.28
2023-05-05T07:38:58.951Z,100432.78
2023-05-05T07:44:18.522Z,100429.84
2023-05-05T07:46:48.081Z,100444.59
2023-05-05T07:49:20.019Z,100452.53
2023-05-05T07:51:56.659Z,100435.63
2023-05-05T07:57:26.166Z,100422.66
2023-05-05T07:59:53.486Z,100441.28
2023-05-05T08:02:26.668Z,100434.56
2023-05-05T08:04:58.076Z,100440.19
2023-05-05T08:07:29.377Z,100442.59
2023-05-05T08:10:07.841Z,100439.34
2023-05-05T08:12:40.634Z,100440.16
2023-05-05T08:15:14.221Z,100414.34
2023-05-05T08:17:51.834Z,100418.91
2023-05-05T08:23:13.779Z,100432.91
2023-05-05T08:25:47.782Z,100427.84
2023-05-05T08:28:17.003Z,100441.44
2023-05-05T08:31:10.077Z,100438.09
2023-05-05T08:39:17.370Z,100434.34
2023-05-05T08:41:51.122Z,100431.50
2023-05-05T08:44:53.775Z,100439.34
2023-05-05T08:47:39.048Z,100438.34
2023-05-05T08:50:18.818Z,100436.91
2023-05-05T08:52:56.357Z,100421.03
2023-05-05T08:55:33.141Z,100436.75
2023-05-05T08:58:08.600Z,100441.47
2023-05-05T09:00:37.745Z,100449.53
2023-05-05T09:03:15.028Z,100440.06
2023-05-05T09:05:47.713Z,100406.53
2023-05-05T09:08:19.895Z,100432.66
2023-05-05T09:10:58.755Z,100433.19
2023-05-05T09:13:27.191Z,100426.31
2023-05-05T09:16:06.534Z,100436.44
2023-05-05T09:18:42.598Z,100441.22
2023-05-05T09:21:36.345Z,100427.69
2023-05-05T09:24:24.145Z,100432.03
2023-05-05T09:26:55.697Z,100434.22
2023-05-05T09:29:27.734Z,100434.09
2023-05-05T09:32:09.958Z,100430.28
2023-05-05T09:34:40.643Z,100426.28
2023-05-05T09:40:36.404Z,100422.50
2023-05-05T09:43:11.616Z,100428.59
2023-05-05T09:45:43.757Z,100416.19
2023-05-05T09:48:28.623Z,100416.31
2023-05-05T09:50:57.841Z,100412.31
2023-05-05T09:56:11.190Z,100398.56
2023-05-05T09:58:38.512Z,100410.72
2023-05-05T10:01:05.437Z,100402.56
2023-05-05T10:03:35.293Z,100405.41
2023-05-05T10:06:05.425Z,100378.38
2023-05-05T10:08:34.762Z,100396.41
2023-05-05T10:11:07.489Z,100382.19
2023-05-05T10:13:51.952Z,100365.84
2023-05-05T10:16:30.813Z,100378.41
2023-05-05T10:19:05.260Z,100376.38
2023-05-05T10:24:46.253Z,100358.97
2023-05-05T10:27:31.089Z,100362.13
2023-05-05T10:30:15.557Z,100367.50
2023-05-05T10:36:00.377Z,100358.56
2023-05-05T10:38:45.218Z,100355.44
2023-05-05T10:41:16.466Z,100340.72
2023-05-05T10:43:53.509Z,100351.88
2023-05-05T10:46:29.156Z,100320.81
2023-05-05T10:49:39.978Z,100331.06
2023-05-05T10:52:23.501Z,100294.22
2023-05-05T10:55:16.882Z,100303.63
2023-05-05T11:03:44.930Z,100344.63
2023-05-05T11:09:00.258Z,100337.16
2023-05-05T11:11:48.534Z,100338.03
2023-05-05T11:14:26.699Z,100331.16
2023-05-05T11:17:09.911Z,100310.81
2023-05-05T11:19:57.060Z,100324.81
2023-05-05T11:22:24.452Z,100320.88
2023-05-05T11:24:53.541Z,100295.91
2023-05-05T11:27:23.589Z,100292.31
2023-05-05T11:36:37.567Z,100286.69
2023-05-05T11:39:24.664Z,100276.53
2023-05-05T11:45:28.392Z,100228.88
2023-05-05T11:48:29.561Z,100302.06
2023-05-05T12:00:13.074Z,100294.00
2023-05-05T12:02:47.129Z,100287.97
2023-05-05T12:05:28.443Z,100291.06
2023-05-05T12:08:02.339Z,100289.53
2023-05-05T12:10:29.591Z,100291.00
2023-05-05T12:12:58.692Z,100287.66
2023-05-05T12:15:34.535Z,100285.06
2023-05-05T12:18:22.461Z,100253.16
2023-05-05T12:20:52.398Z,100264.22
2023-05-05T12:23:23.962Z,100289.09
2023-05-05T12:25:51.727Z,100270.81
2023-05-05T12:28:18.520Z,100284.41
2023-05-05T12:33:44.306Z,100276.97
2023-05-05T12:36:16.992Z,100278.22
2023-05-05T12:38:46.358Z,100273.13
2023-05-05T12:41:24.826Z,100278.38
2023-05-05T12:43:56.766Z,100268.72
2023-05-05T12:46:26.758Z,100269.94
2023-05-05T12:49:08.238Z,100268.41
2023-05-05T12:51:43.804Z,100269.38
2023-05-05T12:54:24.909Z,100254.84
2023-05-05T12:56:59.568Z,100260.28
2023-05-05T12:59:35.350Z,100268.38
2023-05-05T13:02:15.397Z,100211.50
2023-05-05T13:04:56.537Z,100174.56
2023-05-05T13:14:47.213Z,100235.69
2023-05-05T13:17:29.683Z,100231.72
2023-05-05T13:22:53.122Z,100221.88
2023-05-05T13:25:23.160Z,100202.91
2023-05-05T13:33:19.982Z,100202.94
2023-05-05T13:38:45.806Z,100187.63
2023-05-05T13:41:16.859Z,100190.66
2023-05-05T13:43:48.313Z,100193.56
2023-05-05T13:46:19.965Z,100190.63
2023-05-05T13:48:56.040Z,100135.94
2023-05-05T13:51:49.973Z,100182.72
2023-05-05T14:10:22.679Z,100119.50
2023-05-05T14:12:55.030Z,100125.06
2023-05-05T14:21:09.090Z,100141.06
2023-05-05T14:26:30.694Z,100140.81
2023-05-05T14:29:04.552Z,100176.03
2023-05-05T14:34:22.507Z,100183.38
2023-05-05T14:36:50.075Z,100150.31
2023-05-05T14:39:20.746Z,100144.56
2023-05-05T14:41:51.866Z,100136.44
2023-05-05T14:44:22.502Z,100093.31
2023-05-05T14:49:44.296Z,100159.97
2023-05-05T14:52:11.088Z,100113.44
2023-05-05T14:54:40.373Z,100147.78
2023-05-05T14:57:15.645Z,100153.53
2023-05-05T14:59:49.731Z,100178.06
2023-05-05T15:02:16.928Z,100185.34
2023-05-05T15:04:44.170Z,100183.78
2023-05-05T15:07:13.610Z,100170.63
2023-05-05T15:09:44.816Z,100188.63
2023-05-05T15:12:29.674Z,100171.53
2023-05-05T15:14:57.071Z,100166.03
2023-05-05T15:17:25.327Z,100189.28
2023-05-05T15:19:52.120Z,100183.16
2023-05-05T15:22:19.663Z,100202.56
2023-05-05T15:24:46.890Z,100213.78
2023-05-05T15:27:19.586Z,100217.91
2023-05-05T15:29:50.793Z,100255.69
2023-05-05T15:32:17.937Z,100216.19
2023-05-05T15:34:50.183Z,100223.66
2023-05-05T15:37:19.920Z,100254.75
2023-05-05T15:39:47.139Z,100264.00
2023-05-05T15:42:17.918Z,100253.28
2023-05-05T15:44:45.242Z,100250.88
2023-05-05T15:47:18.426Z,100251.13
2023-05-05T15:49:52.218Z,100250.59
2023-05-05T15:52:22.443Z,100226.66
2023-05-05T15:54:49.459Z,100223.13
2023-05-05T16:02:43.043Z,100233.38
2023-05-05T16:05:10.887Z,100217.78
2023-05-05T16:08:10.823Z,100235.84
2023-05-05T16:10:38.196Z,100237.88
2023-05-05T16:13:08.524Z,100206.66
2023-05-05T16:15:41.700Z,100240.63
2023-05-05T16:18:20.542Z,100226.06
2023-05-05T16:20:47.560Z,100225.31
2023-05-05T16:23:18.354Z,100232.53
2023-05-05T16:25:48.932Z,100245.41
2023-05-05T16:28:19.227Z,100243.38
2023-05-05T16:30:46.682Z,100195.72
2023-05-05T16:33:14.358Z,100253.75
2023-05-05T16:36:10.784Z,100189.38
2023-05-05T16:39:00.195Z,100237.31
2023-05-05T16:41:47.182Z,100249.75
2023-05-05T16:44:14.872Z,100244.88
2023-05-05T16:46:49.759Z,100262.31
2023-05-05T16:49:34.326Z,100260.72
2023-05-05T16:52:02.289Z,100260.13
2023-05-05T16:54:36.936Z,100218.81
2023-05-05T16:57:06.079Z,100236.94
2023-05-05T16:59:35.262Z,100195.22
2023-05-05T17:02:06.047Z,100236.22
2023-05-05T17:04:36.316Z,100262.75
2023-05-05T17:07:06.882Z,100263.72
2023-05-05T17:13:02.132Z,100243.78
2023-05-05T17:15:33.470Z,100252.44
2023-05-05T17:20:50.813Z,100244.03
2023-05-05T17:31:58.212Z,100273.06
2023-05-05T17:34:46.135Z,100289.03
2023-05-05T17:40:06.060Z,100238.25
2023-05-05T17:45:23.185Z,100242.56
2023-05-05T17:48:07.338Z,100207.00
2023-05-05T17:50:43.505Z,100278.97
2023-05-05T17:53:14.414Z,100250.00
2023-05-05T17:55:49.657Z,100273.59
2023-05-05T17:58:32.460Z,100218.47
2023-05-05T18:01:26.316Z,100244.16
2023-05-05T18:03:57.083Z,100266.28
2023-05-05T18:06:30.423Z,100299.63
2023-05-05T18:09:00.260Z,100297.75
2023-05-05T18:11:55.285Z,100300.19
2023-05-05T18:14:26.060Z,100262.63
2023-05-05T18:17:06.944Z,100290.13
2023-05-05T18:19:35.015Z,100276.88
2023-05-05T18:22:16.387Z,100273.34
2023-05-05T18:24:46.773Z,100303.63
2023-05-05T18:27:14.461Z,100310.44
2023-05-05T18:29:43.890Z,100254.09
2023-05-05T18:38:23.209Z,100319.97
2023-05-05T18:40:53.361Z,100319.09
2023-05-05T18:43:21.119Z,100286.47
2023-05-05T18:58:37.658Z,100329.19
2023-05-05T19:01:15.265Z,100341.75
2023-05-05T19:10:27.356Z,100360.84
2023-05-05T19:12:59.930Z,100318.94
2023-05-05T19:15:34.194Z,100311.25
2023-05-05T19:18:04.665Z,100316.63
2023-05-05T19:20:45.762Z,100325.16
2023-05-05T19:23:23.567Z,100301.25
2023-05-05T19:25:56.582Z,100348.22
2023-05-05T19:31:11.828Z,100310.53
2023-05-05T19:33:47.307Z,100338.69
2023-05-05T19:36:23.153Z,100295.69
2023-05-05T19:38:55.489Z,100306.53
2023-05-05T19:41:31.506Z,100287.06
2023-05-05T19:44:02.004Z,100285.84
2023-05-05T19:46:28.949Z,100342.88
2023-05-05T19:48:58.443Z,100330.81
2023-05-05T19:51:30.314Z,100295.44
2023-05-05T19:53:57.440Z,100343.06
2023-05-05T19:59:18.640Z,100326.88
2023-05-05T20:01:49.992Z,100346.25
2023-05-05T20:04:24.047Z,100318.63
2023-05-05T20:07:00.260Z,100352.09
2023-05-05T20:09:35.523Z,100291.47
2023-05-05T20:12:06.172Z,100342.69
2023-05-05T20:14:33.211Z,100323.53
2023-05-05T20:17:04.239Z,100312.56
2023-05-05T20:19:32.305Z,100323.53
2023-05-05T20:22:07.867Z,100274.97
2023-05-05T20:27:45.929Z,100355.38
2023-05-05T20:30:15.371Z,100291.34
2023-05-05T20:32:44.858Z,100344.38
2023-05-05T20:35:13.092Z,100307.63
2023-05-05T20:37:43.758Z,100357.94
2023-05-05T20:42:54.693Z,100362.22
2023-05-05T20:45:29.142Z,100375.47
2023-05-05T20:48:05.346Z,100379.97
2023-05-05T20:50:33.873Z,100377.28
2023-05-05T20:53:03.336Z,100372.69
2023-05-05T20:55:32.406Z,100363.31
2023-05-05T20:58:11.249Z,100374.41
2023-05-05T21:00:41.531Z,100326.69
2023-05-05T21:03:12.734Z,100373.88
2023-05-05T21:05:43.605Z,100374.97
2023-05-05T21:08:21.750Z,100370.81
2023-05-05T21:10:51.192Z,100370.50
2023-05-05T21:13:29.482Z,100358.38
2023-05-05T21:15:56.964Z,100369.59
2023-05-05T21:18:34.598Z,100375.47
2023-05-05T21:21:08.645Z,100381.03
2023-05-05T21:23:38.403Z,100375.47
2023-05-05T21:26:09.071Z,100390.09
2023-05-05T21:28:39.105Z,100376.81
2023-05-05T21:31:21.383Z,100381.47
2023-05-05T21:36:34.489Z,100356.00
2023-05-05T21:41:49.829Z,100375.63
2023-05-05T21:44:20.681Z,100368.09
2023-05-05T21:46:51.020Z,100379.75
2023-05-05T21:52:02.470Z,100380.06
2023-05-05T21:54:30.509Z,100386.28
2023-05-05T21:56:58.482Z,100376.38
2023-05-05T21:59:25.859Z,100387.34
2023-05-05T22:01:58.644Z,100346.81
2023-05-05T22:04:28.974Z,100359.59
2023-05-05T22:06:56.607Z,100382.53
2023-05-05T22:09:23.783Z,100377.63
2023-05-05T22:14:44.403Z,100360.97
2023-05-05T22:20:08.545Z,100331.63
2023-05-05T22:22:36.134Z,100333.56
2023-05-05T22:25:18.720Z,100345.72
2023-05-05T22:27:50.517Z,100366.25
2023-05-05T22:30:18.957Z,100388.78
2023-05-05T22:32:49.981Z,100379.91
2023-05-05T22:35:19.166Z,100293.22
2023-05-05T22:37:49.016Z,100390.81
2023-05-05T22:40:19.226Z,100403.13
2023-05-05T22:42:54.894Z,100385.91
2023-05-05T22:45:23.391Z,100389.03
2023-05-05T22:50:34.407Z,100397.25
2023-05-05T22:53:11.602Z,100394.13
2023-05-05T22:55:43.186Z,100374.97
2023-05-05T22:58:18.194Z,100361.69
2023-05-05T23:00:47.357Z,100403.19
2023-05-05T23:03:18.852Z,100410.44
2023-05-05T23:05:48.037Z,100400.81
2023-05-05T23:08:26.941Z,100403.38
2023-05-05T23:10:54.567Z,100399.00
2023-05-05T23:16:07.467Z,100316.59
2023-05-05T23:18:36.429Z,100401.72
2023-05-05T23:21:11.291Z,100320.00
2023-05-05T23:23:43.388Z,100361.59
2023-05-05T23:26:14.323Z,100362.63
2023-05-05T23:28:46.483Z,100368.63
2023-05-05T23:31:14.257Z,100419.44
2023-05-05T23:36:37.220Z,100308.19
2023-05-05T23:39:07.859Z,100409.19
2023-05-05T23:41:35.740Z,100404.16
2023-05-05T23:44:07.096Z,100381.41
2023-05-05T23:46:34.467Z,100301.88
2023-05-05T23:49:07.651Z,100404.03
2023-05-05T23:51:37.186Z,100358.69
2023-05-05T23:54:06.227Z,100315.31
2023-05-05T23:56:35.943Z,100315.78
2023-05-05T23:59:03.699Z,100370.72
